sensor_id;sensor_type;location;lat;lon;timestamp;pressure;altitude;pressure_sealevel;temperature;humidity
60976;BME280;46849;48.154;17.042;2022-11-20T00:00:26;98417.72;;;0.55;75.21
60976;BME280;46849;48.154;17.042;2022-11-20T00:03:17;98414.44;;;0.23;76.39
60976;BME280;46849;48.154;17.042;2022-11-20T00:06:16;98417.34;;;0.41;78.72
60976;BME280;46849;48.154;17.042;2022-11-20T00:09:01;98418.84;;;0.46;76.53
60976;BME280;46849;48.154;17.042;2022-11-20T00:11:46;98413.59;;;0.49;76.78
60976;BME280;46849;48.154;17.042;2022-11-20T00:14:31;98424.28;;;0.64;78.02
60976;BME280;46849;48.154;17.042;2022-11-20T00:17:16;98422.19;;;0.76;77.45
60976;BME280;46849;48.154;17.042;2022-11-20T00:20:01;98418.16;;;0.94;78.15
60976;BME280;46849;48.154;17.042;2022-11-20T00:22:45;98410.38;;;0.70;76.45
60976;BME280;46849;48.154;17.042;2022-11-20T00:25:33;98407.34;;;0.82;77.13
60976;BME280;46849;48.154;17.042;2022-11-20T00:28:19;98402.09;;;0.85;75.20
60976;BME280;46849;48.154;17.042;2022-11-20T00:31:14;98389.84;;;0.67;75.87
60976;BME280;46849;48.154;17.042;2022-11-20T00:33:59;98399.16;;;0.71;76.53
60976;BME280;46849;48.154;17.042;2022-11-20T00:36:44;98399.69;;;0.81;75.84
60976;BME280;46849;48.154;17.042;2022-11-20T00:39:28;98404.22;;;1.00;78.13
60976;BME280;46849;48.154;17.042;2022-11-20T00:42:13;98404.63;;;0.87;74.12
60976;BME280;46849;48.154;17.042;2022-11-20T00:44:59;98404.34;;;0.69;77.80
60976;BME280;46849;48.154;17.042;2022-11-20T00:47:44;98393.72;;;0.79;78.08
60976;BME280;46849;48.154;17.042;2022-11-20T00:50:29;98396.28;;;0.79;78.04
60976;BME280;46849;48.154;17.042;2022-11-20T00:53:14;98416.66;;;0.86;77.14
60976;BME280;46849;48.154;17.042;2022-11-20T00:56:04;98420.63;;;0.97;79.33
60976;BME280;46849;48.154;17.042;2022-11-20T00:58:50;98403.41;;;0.97;78.26
60976;BME280;46849;48.154;17.042;2022-11-20T01:01:35;98403.19;;;1.04;79.28
60976;BME280;46849;48.154;17.042;2022-11-20T01:04:20;98405.88;;;1.01;80.09
60976;BME280;46849;48.154;17.042;2022-11-20T01:07:05;98399.50;;;0.85;80.66
60976;BME280;46849;48.154;17.042;2022-11-20T01:09:50;98400.81;;;0.72;80.62
60976;BME280;46849;48.154;17.042;2022-11-20T01:12:35;98404.69;;;0.60;80.64
60976;BME280;46849;48.154;17.042;2022-11-20T01:15:20;98409.19;;;0.79;81.17
60976;BME280;46849;48.154;17.042;2022-11-20T01:18:05;98407.72;;;0.97;81.15
60976;BME280;46849;48.154;17.042;2022-11-20T01:20:50;98413.09;;;0.65;81.31
60976;BME280;46849;48.154;17.042;2022-11-20T01:23:36;98419.66;;;0.74;82.73
60976;BME280;46849;48.154;17.042;2022-11-20T01:26:24;98424.34;;;1.14;83.56
60976;BME280;46849;48.154;17.042;2022-11-20T01:29:14;98435.53;;;1.14;80.71
60976;BME280;46849;48.154;17.042;2022-11-20T01:31:59;98437.03;;;1.20;81.84
60976;BME280;46849;48.154;17.042;2022-11-20T01:34:46;98431.66;;;1.26;82.18
60976;BME280;46849;48.154;17.042;2022-11-20T01:37:33;98437.72;;;1.25;81.60
60976;BME280;46849;48.154;17.042;2022-11-20T01:40:18;98434.00;;;1.32;81.23
60976;BME280;46849;48.154;17.042;2022-11-20T01:43:21;98445.25;;;1.31;80.82
60976;BME280;46849;48.154;17.042;2022-11-20T01:46:17;98449.72;;;1.26;81.95
60976;BME280;46849;48.154;17.042;2022-11-20T01:49:19;98447.94;;;1.28;82.43
60976;BME280;46849;48.154;17.042;2022-11-20T01:52:05;98445.13;;;1.34;83.33
60976;BME280;46849;48.154;17.042;2022-11-20T01:54:56;98435.56;;;1.38;82.82
60976;BME280;46849;48.154;17.042;2022-11-20T01:57:43;98440.72;;;1.38;83.19
60976;BME280;46849;48.154;17.042;2022-11-20T02:00:29;98438.97;;;1.39;81.96
60976;BME280;46849;48.154;17.042;2022-11-20T02:03:17;98442.56;;;1.34;82.81
60976;BME280;46849;48.154;17.042;2022-11-20T02:06:13;98443.75;;;1.24;81.57
60976;BME280;46849;48.154;17.042;2022-11-20T02:08:59;98446.31;;;1.00;81.67
60976;BME280;46849;48.154;17.042;2022-11-20T02:11:44;98441.84;;;1.05;83.26
60976;BME280;46849;48.154;17.042;2022-11-20T02:14:29;98449.91;;;0.96;83.24
60976;BME280;46849;48.154;17.042;2022-11-20T02:17:13;98442.81;;;0.50;83.42
60976;BME280;46849;48.154;17.042;2022-11-20T02:19:58;98438.94;;;0.64;86.03
60976;BME280;46849;48.154;17.042;2022-11-20T02:23:12;98442.00;;;1.01;86.41
60976;BME280;46849;48.154;17.042;2022-11-20T02:26:03;98438.19;;;1.11;84.70
60976;BME280;46849;48.154;17.042;2022-11-20T02:28:50;98446.47;;;1.21;84.68
60976;BME280;46849;48.154;17.042;2022-11-20T02:31:37;98448.91;;;1.26;84.33
60976;BME280;46849;48.154;17.042;2022-11-20T02:34:22;98439.34;;;1.28;85.11
60976;BME280;46849;48.154;17.042;2022-11-20T02:37:07;98437.22;;;1.39;86.81
60976;BME280;46849;48.154;17.042;2022-11-20T02:39:52;98438.88;;;1.42;87.05
60976;BME280;46849;48.154;17.042;2022-11-20T02:42:37;98434.00;;;1.32;88.55
60976;BME280;46849;48.154;17.042;2022-11-20T02:45:22;98404.16;;;1.25;90.44
60976;BME280;46849;48.154;17.042;2022-11-20T02:48:06;98398.16;;;1.25;90.97
60976;BME280;46849;48.154;17.042;2022-11-20T02:50:52;98390.19;;;1.07;91.40
60976;BME280;46849;48.154;17.042;2022-11-20T02:53:36;98398.88;;;1.04;92.97
60976;BME280;46849;48.154;17.042;2022-11-20T02:56:22;98405.09;;;1.22;92.94
60976;BME280;46849;48.154;17.042;2022-11-20T02:59:06;98399.34;;;1.16;93.60
60976;BME280;46849;48.154;17.042;2022-11-20T03:01:51;98404.50;;;1.16;94.25
60976;BME280;46849;48.154;17.042;2022-11-20T03:04:36;98396.25;;;1.30;95.77
60976;BME280;46849;48.154;17.042;2022-11-20T03:07:21;98394.19;;;1.40;94.62
60976;BME280;46849;48.154;17.042;2022-11-20T03:10:06;98401.94;;;1.16;93.83
60976;BME280;46849;48.154;17.042;2022-11-20T03:12:55;98403.38;;;0.99;92.69
60976;BME280;46849;48.154;17.042;2022-11-20T03:15:39;98402.56;;;0.97;96.00
60976;BME280;46849;48.154;17.042;2022-11-20T03:18:27;98401.25;;;1.10;95.92
60976;BME280;46849;48.154;17.042;2022-11-20T03:21:13;98399.19;;;1.20;94.84
60976;BME280;46849;48.154;17.042;2022-11-20T03:23:58;98393.63;;;1.31;94.33
60976;BME280;46849;48.154;17.042;2022-11-20T03:26:44;98401.19;;;1.36;95.03
60976;BME280;46849;48.154;17.042;2022-11-20T03:29:29;98416.84;;;1.31;95.67
60976;BME280;46849;48.154;17.042;2022-11-20T03:32:13;98415.38;;;1.24;94.55
60976;BME280;46849;48.154;17.042;2022-11-20T03:34:58;98415.59;;;1.18;94.85
60976;BME280;46849;48.154;17.042;2022-11-20T03:37:43;98409.03;;;1.09;92.74
60976;BME280;46849;48.154;17.042;2022-11-20T03:40:30;98400.72;;;1.01;93.94
60976;BME280;46849;48.154;17.042;2022-11-20T03:43:15;98391.31;;;1.00;95.39
60976;BME280;46849;48.154;17.042;2022-11-20T03:46:00;98379.34;;;0.97;94.50
60976;BME280;46849;48.154;17.042;2022-11-20T03:48:44;98362.44;;;1.14;95.18
60976;BME280;46849;48.154;17.042;2022-11-20T03:51:31;98370.22;;;1.12;95.01
60976;BME280;46849;48.154;17.042;2022-11-20T03:54:16;98375.84;;;1.23;95.26
60976;BME280;46849;48.154;17.042;2022-11-20T03:57:01;98376.63;;;1.26;96.09
60976;BME280;46849;48.154;17.042;2022-11-20T03:59:46;98378.75;;;1.14;97.01
60976;BME280;46849;48.154;17.042;2022-11-20T04:02:31;98375.38;;;1.12;96.20
60976;BME280;46849;48.154;17.042;2022-11-20T04:05:17;98369.75;;;1.01;97.11
60976;BME280;46849;48.154;17.042;2022-11-20T04:08:02;98368.84;;;1.02;97.08
60976;BME280;46849;48.154;17.042;2022-11-20T04:10:47;98358.81;;;0.94;96.82
60976;BME280;46849;48.154;17.042;2022-11-20T04:13:32;98365.25;;;0.82;97.57
60976;BME280;46849;48.154;17.042;2022-11-20T04:16:17;98350.16;;;0.95;98.63
60976;BME280;46849;48.154;17.042;2022-11-20T04:19:05;98350.97;;;1.21;97.52
60976;BME280;46849;48.154;17.042;2022-11-20T04:21:50;98353.94;;;1.10;96.68
60976;BME280;46849;48.154;17.042;2022-11-20T04:24:35;98350.03;;;1.23;96.54
60976;BME280;46849;48.154;17.042;2022-11-20T04:27:20;98335.16;;;1.30;97.96
60976;BME280;46849;48.154;17.042;2022-11-20T04:30:05;98349.50;;;1.38;97.01
60976;BME280;46849;48.154;17.042;2022-11-20T04:32:50;98350.34;;;1.38;96.43
60976;BME280;46849;48.154;17.042;2022-11-20T04:35:35;98340.63;;;1.45;96.91
60976;BME280;46849;48.154;17.042;2022-11-20T04:38:19;98347.34;;;1.27;97.83
60976;BME280;46849;48.154;17.042;2022-11-20T04:41:06;98342.47;;;1.19;97.81
60976;BME280;46849;48.154;17.042;2022-11-20T04:43:56;98350.16;;;1.20;98.20
60976;BME280;46849;48.154;17.042;2022-11-20T04:46:43;98337.13;;;1.23;98.38
60976;BME280;46849;48.154;17.042;2022-11-20T04:49:28;98331.66;;;1.31;98.54
60976;BME280;46849;48.154;17.042;2022-11-20T04:52:13;98335.84;;;1.34;98.31
60976;BME280;46849;48.154;17.042;2022-11-20T04:54:58;98328.28;;;1.29;98.45
60976;BME280;46849;48.154;17.042;2022-11-20T04:57:43;98317.59;;;1.40;98.45
60976;BME280;46849;48.154;17.042;2022-11-20T05:00:28;98320.00;;;1.45;97.96
60976;BME280;46849;48.154;17.042;2022-11-20T05:03:12;98328.03;;;1.13;98.46
60976;BME280;46849;48.154;17.042;2022-11-20T05:06:04;98325.56;;;1.10;99.05
60976;BME280;46849;48.154;17.042;2022-11-20T05:08:50;98322.69;;;1.18;98.64
60976;BME280;46849;48.154;17.042;2022-11-20T05:11:35;98313.78;;;1.03;98.07
60976;BME280;46849;48.154;17.042;2022-11-20T05:14:20;98310.81;;;0.90;100.00
60976;BME280;46849;48.154;17.042;2022-11-20T05:17:05;98319.25;;;0.93;100.00
60976;BME280;46849;48.154;17.042;2022-11-20T05:19:50;98318.91;;;1.04;100.00
60976;BME280;46849;48.154;17.042;2022-11-20T05:22:34;98329.31;;;1.25;99.86
60976;BME280;46849;48.154;17.042;2022-11-20T05:25:19;98331.91;;;1.25;98.78
60976;BME280;46849;48.154;17.042;2022-11-20T05:28:04;98317.88;;;1.08;98.50
60976;BME280;46849;48.154;17.042;2022-11-20T05:30:50;98314.56;;;1.05;98.79
60976;BME280;46849;48.154;17.042;2022-11-20T05:33:35;98314.50;;;1.06;98.88
60976;BME280;46849;48.154;17.042;2022-11-20T05:36:20;98312.88;;;1.04;99.47
60976;BME280;46849;48.154;17.042;2022-11-20T05:39:05;98312.16;;;1.00;99.72
60976;BME280;46849;48.154;17.042;2022-11-20T05:41:50;98323.09;;;1.07;100.00
60976;BME280;46849;48.154;17.042;2022-11-20T05:44:54;98329.59;;;1.17;99.41
60976;BME280;46849;48.154;17.042;2022-11-20T05:47:39;98336.56;;;1.15;98.75
60976;BME280;46849;48.154;17.042;2022-11-20T05:50:24;98331.56;;;1.10;99.01
60976;BME280;46849;48.154;17.042;2022-11-20T05:53:09;98340.38;;;1.05;99.27
60976;BME280;46849;48.154;17.042;2022-11-20T05:56:01;98338.75;;;1.02;99.38
60976;BME280;46849;48.154;17.042;2022-11-20T05:58:47;98347.00;;;0.86;100.00
60976;BME280;46849;48.154;17.042;2022-11-20T06:01:32;98345.97;;;0.92;100.00
60976;BME280;46849;48.154;17.042;2022-11-20T06:04:17;98338.41;;;0.88;100.00
60976;BME280;46849;48.154;17.042;2022-11-20T06:07:01;98342.19;;;0.77;100.00
60976;BME280;46849;48.154;17.042;2022-11-20T06:09:46;98340.75;;;0.94;100.00
60976;BME280;46849;48.154;17.042;2022-11-20T06:12:32;98348.66;;;1.13;100.00
60976;BME280;46849;48.154;17.042;2022-11-20T06:15:17;98338.22;;;1.16;100.00
60976;BME280;46849;48.154;17.042;2022-11-20T06:18:02;98336.06;;;1.05;100.00
60976;BME280;46849;48.154;17.042;2022-11-20T06:20:47;98341.09;;;0.84;100.00
60976;BME280;46849;48.154;17.042;2022-11-20T06:23:33;98349.94;;;0.77;100.00
60976;BME280;46849;48.154;17.042;2022-11-20T06:26:24;98365.56;;;0.72;100.00
60976;BME280;46849;48.154;17.042;2022-11-20T06:29:09;98371.50;;;1.00;100.00
60976;BME280;46849;48.154;17.042;2022-11-20T06:31:54;98370.38;;;1.07;100.00
60976;BME280;46849;48.154;17.042;2022-11-20T06:34:39;98366.63;;;1.16;100.00
60976;BME280;46849;48.154;17.042;2022-11-20T06:37:24;98374.31;;;1.18;100.00
60976;BME280;46849;48.154;17.042;2022-11-20T06:40:09;98380.50;;;1.14;100.00
60976;BME280;46849;48.154;17.042;2022-11-20T06:42:54;98383.88;;;1.16;100.00
60976;BME280;46849;48.154;17.042;2022-11-20T06:45:39;98381.16;;;1.19;100.00
60976;BME280;46849;48.154;17.042;2022-11-20T06:48:26;98381.94;;;1.21;100.00
60976;BME280;46849;48.154;17.042;2022-11-20T06:51:12;98387.09;;;1.21;100.00
60976;BME280;46849;48.154;17.042;2022-11-20T06:53:57;98390.31;;;1.28;100.00
60976;BME280;46849;48.154;17.042;2022-11-20T06:56:42;98402.91;;;1.12;100.00
60976;BME280;46849;48.154;17.042;2022-11-20T06:59:27;98406.47;;;1.09;100.00
60976;BME280;46849;48.154;17.042;2022-11-20T07:02:11;98410.66;;;1.12;100.00
60976;BME280;46849;48.154;17.042;2022-11-20T07:04:56;98405.56;;;1.10;100.00
60976;BME280;46849;48.154;17.042;2022-11-20T07:07:41;98410.81;;;1.07;100.00
60976;BME280;46849;48.154;17.042;2022-11-20T07:10:26;98420.28;;;1.06;100.00
60976;BME280;46849;48.154;17.042;2022-11-20T07:13:10;98412.38;;;1.13;100.00
60976;BME280;46849;48.154;17.042;2022-11-20T07:15:59;98413.41;;;1.07;100.00
60976;BME280;46849;48.154;17.042;2022-11-20T07:18:44;98409.00;;;1.10;100.00
60976;BME280;46849;48.154;17.042;2022-11-20T07:21:29;98407.16;;;1.14;100.00
60976;BME280;46849;48.154;17.042;2022-11-20T07:24:13;98406.28;;;1.14;100.00
60976;BME280;46849;48.154;17.042;2022-11-20T07:26:58;98408.56;;;0.97;100.00
60976;BME280;46849;48.154;17.042;2022-11-20T07:29:43;98422.22;;;1.01;100.00
60976;BME280;46849;48.154;17.042;2022-11-20T07:32:29;98418.03;;;0.97;100.00
60976;BME280;46849;48.154;17.042;2022-11-20T07:35:13;98431.34;;;1.10;100.00
60976;BME280;46849;48.154;17.042;2022-11-20T07:37:58;98430.44;;;1.13;100.00
60976;BME280;46849;48.154;17.042;2022-11-20T07:40:43;98435.13;;;1.01;100.00
60976;BME280;46849;48.154;17.042;2022-11-20T07:43:28;98438.13;;;1.14;100.00
60976;BME280;46849;48.154;17.042;2022-11-20T07:46:16;98437.25;;;1.14;100.00
60976;BME280;46849;48.154;17.042;2022-11-20T07:49:01;98444.22;;;1.12;100.00
60976;BME280;46849;48.154;17.042;2022-11-20T07:51:46;98445.00;;;1.14;100.00
60976;BME280;46849;48.154;17.042;2022-11-20T07:54:31;98446.47;;;1.21;100.00
60976;BME280;46849;48.154;17.042;2022-11-20T07:57:15;98445.47;;;1.25;100.00
60976;BME280;46849;48.154;17.042;2022-11-20T08:00:01;98448.06;;;1.25;100.00
60976;BME280;46849;48.154;17.042;2022-11-20T08:02:45;98451.38;;;1.29;100.00
60976;BME280;46849;48.154;17.042;2022-11-20T08:05:30;98449.31;;;1.39;100.00
60976;BME280;46849;48.154;17.042;2022-11-20T08:08:15;98448.91;;;1.26;100.00
60976;BME280;46849;48.154;17.042;2022-11-20T08:11:01;98455.09;;;1.20;100.00
60976;BME280;46849;48.154;17.042;2022-11-20T08:14:04;98452.50;;;0.96;100.00
60976;BME280;46849;48.154;17.042;2022-11-20T08:16:58;98447.00;;;1.05;100.00
60976;BME280;46849;48.154;17.042;2022-11-20T08:19:43;98447.59;;;1.14;100.00
60976;BME280;46849;48.154;17.042;2022-11-20T08:22:29;98451.69;;;1.19;100.00
60976;BME280;46849;48.154;17.042;2022-11-20T08:25:14;98454.94;;;1.25;100.00
60976;BME280;46849;48.154;17.042;2022-11-20T08:27:59;98447.59;;;1.38;100.00
60976;BME280;46849;48.154;17.042;2022-11-20T08:30:44;98451.03;;;1.38;100.00
60976;BME280;46849;48.154;17.042;2022-11-20T08:33:30;98449.38;;;1.35;100.00
60976;BME280;46849;48.154;17.042;2022-11-20T08:36:17;98450.53;;;1.52;100.00
60976;BME280;46849;48.154;17.042;2022-11-20T08:39:03;98449.25;;;1.64;100.00
60976;BME280;46849;48.154;17.042;2022-11-20T08:41:48;98450.88;;;1.67;100.00
60976;BME280;46849;48.154;17.042;2022-11-20T08:44:33;98450.09;;;1.65;100.00
60976;BME280;46849;48.154;17.042;2022-11-20T08:47:18;98454.25;;;1.69;100.00
60976;BME280;46849;48.154;17.042;2022-11-20T08:50:03;98447.22;;;1.72;100.00
60976;BME280;46849;48.154;17.042;2022-11-20T08:52:47;98446.25;;;1.75;100.00
60976;BME280;46849;48.154;17.042;2022-11-20T08:55:32;98447.03;;;1.77;100.00
60976;BME280;46849;48.154;17.042;2022-11-20T08:58:19;98445.00;;;1.63;100.00
60976;BME280;46849;48.154;17.042;2022-11-20T09:01:07;98438.69;;;1.70;100.00
60976;BME280;46849;48.154;17.042;2022-11-20T09:03:52;98434.34;;;2.61;100.00
60976;BME280;46849;48.154;17.042;2022-11-20T09:06:37;98434.16;;;2.65;100.00
60976;BME280;46849;48.154;17.042;2022-11-20T09:09:21;98442.13;;;2.61;100.00
60976;BME280;46849;48.154;17.042;2022-11-20T09:12:19;98459.66;;;2.75;100.00
60976;BME280;46849;48.154;17.042;2022-11-20T09:15:09;98448.28;;;2.79;100.00
60976;BME280;46849;48.154;17.042;2022-11-20T09:17:58;98448.00;;;2.64;100.00
60976;BME280;46849;48.154;17.042;2022-11-20T09:20:43;98439.16;;;3.12;100.00
60976;BME280;46849;48.154;17.042;2022-11-20T09:23:34;98435.72;;;3.51;100.00
60976;BME280;46849;48.154;17.042;2022-11-20T09:26:28;98434.19;;;3.86;100.00
60976;BME280;46849;48.154;17.042;2022-11-20T09:29:17;98427.66;;;4.33;100.00
60976;BME280;46849;48.154;17.042;2022-11-20T09:32:05;98429.88;;;4.59;100.00
60976;BME280;46849;48.154;17.042;2022-11-20T09:34:50;98430.88;;;4.56;100.00
60976;BME280;46849;48.154;17.042;2022-11-20T09:37:35;98433.31;;;4.41;100.00
60976;BME280;46849;48.154;17.042;2022-11-20T09:40:31;98428.09;;;4.24;100.00
60976;BME280;46849;48.154;17.042;2022-11-20T09:46:37;98421.28;;;4.58;100.00
60976;BME280;46849;48.154;17.042;2022-11-20T09:49:32;98415.09;;;4.61;100.00
60976;BME280;46849;48.154;17.042;2022-11-20T09:55:25;98414.94;;;4.64;100.00
60976;BME280;46849;48.154;17.042;2022-11-20T09:58:18;98417.91;;;4.38;98.86
60976;BME280;46849;48.154;17.042;2022-11-20T10:01:35;98413.91;;;4.31;100.00
60976;BME280;46849;48.154;17.042;2022-11-20T10:04:24;98416.22;;;4.00;100.00
60976;BME280;46849;48.154;17.042;2022-11-20T10:07:37;98418.34;;;3.92;100.00
60976;BME280;46849;48.154;17.042;2022-11-20T10:10:34;98422.63;;;3.93;100.00
60976;BME280;46849;48.154;17.042;2022-11-20T10:19:23;98434.91;;;3.30;100.00
60976;BME280;46849;48.154;17.042;2022-11-20T10:25:42;98424.44;;;3.12;100.00
60976;BME280;46849;48.154;17.042;2022-11-20T10:28:49;98420.97;;;3.13;100.00
60976;BME280;46849;48.154;17.042;2022-11-20T10:31:54;98414.53;;;3.22;100.00
60976;BME280;46849;48.154;17.042;2022-11-20T10:37:57;98417.84;;;3.26;100.00
60976;BME280;46849;48.154;17.042;2022-11-20T10:41:00;98415.81;;;3.32;100.00
60976;BME280;46849;48.154;17.042;2022-11-20T10:44:05;98400.16;;;6.16;100.00
60976;BME280;46849;48.154;17.042;2022-11-20T10:46:58;98404.25;;;5.88;100.00
60976;BME280;46849;48.154;17.042;2022-11-20T10:49:47;98404.38;;;4.31;100.00
60976;BME280;46849;48.154;17.042;2022-11-20T10:55:56;98404.06;;;3.44;100.00
60976;BME280;46849;48.154;17.042;2022-11-20T11:01:43;98398.13;;;3.23;100.00
60976;BME280;46849;48.154;17.042;2022-11-20T11:07:24;98388.41;;;3.07;100.00
60976;BME280;46849;48.154;17.042;2022-11-20T11:10:21;98375.44;;;3.67;100.00
60976;BME280;46849;48.154;17.042;2022-11-20T11:13:22;98371.97;;;3.86;100.00
60976;BME280;46849;48.154;17.042;2022-11-20T11:16:20;98378.22;;;3.81;100.00
60976;BME280;46849;48.154;17.042;2022-11-20T11:19:13;98380.72;;;4.02;98.54
60976;BME280;46849;48.154;17.042;2022-11-20T11:21:57;98372.53;;;5.33;100.00
60976;BME280;46849;48.154;17.042;2022-11-20T11:24:51;98373.78;;;6.22;100.00
60976;BME280;46849;48.154;17.042;2022-11-20T11:27:49;98373.63;;;5.28;100.00
60976;BME280;46849;48.154;17.042;2022-11-20T11:30:42;98374.31;;;4.10;100.00
60976;BME280;46849;48.154;17.042;2022-11-20T11:33:30;98375.28;;;4.07;100.00
60976;BME280;46849;48.154;17.042;2022-11-20T11:36:21;98372.97;;;4.73;100.00
60976;BME280;46849;48.154;17.042;2022-11-20T11:39:27;98367.78;;;4.38;100.00
60976;BME280;46849;48.154;17.042;2022-11-20T11:42:27;98366.97;;;4.00;99.86
60976;BME280;46849;48.154;17.042;2022-11-20T11:45:16;98362.38;;;3.88;99.13
60976;BME280;46849;48.154;17.042;2022-11-20T11:48:03;98353.91;;;3.84;98.17
60976;BME280;46849;48.154;17.042;2022-11-20T11:50:54;98352.00;;;3.88;96.90
60976;BME280;46849;48.154;17.042;2022-11-20T11:53:41;98356.75;;;3.97;95.82
60976;BME280;46849;48.154;17.042;2022-11-20T11:56:29;98358.94;;;4.24;93.96
60976;BME280;46849;48.154;17.042;2022-11-20T11:59:25;98356.28;;;4.43;94.40
60976;BME280;46849;48.154;17.042;2022-11-20T12:05:41;98363.75;;;3.95;93.66
60976;BME280;46849;48.154;17.042;2022-11-20T12:08:43;98366.09;;;4.19;94.40
60976;BME280;46849;48.154;17.042;2022-11-20T12:11:32;98364.84;;;4.97;97.71
60976;BME280;46849;48.154;17.042;2022-11-20T12:14:36;98366.97;;;4.89;99.69
60976;BME280;46849;48.154;17.042;2022-11-20T12:17:22;98357.53;;;4.70;94.14
60976;BME280;46849;48.154;17.042;2022-11-20T12:20:13;98356.69;;;4.34;94.62
60976;BME280;46849;48.154;17.042;2022-11-20T12:23:21;98365.00;;;4.05;94.51
60976;BME280;46849;48.154;17.042;2022-11-20T12:26:26;98365.63;;;4.64;93.97
60976;BME280;46849;48.154;17.042;2022-11-20T12:29:41;98366.56;;;4.63;90.79
60976;BME280;46849;48.154;17.042;2022-11-20T12:36:13;98361.69;;;4.56;94.55
60976;BME280;46849;48.154;17.042;2022-11-20T12:39:22;98361.69;;;5.24;91.15
60976;BME280;46849;48.154;17.042;2022-11-20T12:48:29;98344.25;;;9.55;100.00
60976;BME280;46849;48.154;17.042;2022-11-20T12:54:33;98342.19;;;10.20;85.17
60976;BME280;46849;48.154;17.042;2022-11-20T13:00:22;98338.16;;;8.52;76.31
60976;BME280;46849;48.154;17.042;2022-11-20T13:03:33;98335.16;;;8.17;75.27
60976;BME280;46849;48.154;17.042;2022-11-20T13:06:22;98324.16;;;7.71;77.70
60976;BME280;46849;48.154;17.042;2022-11-20T13:09:11;98322.59;;;8.50;72.78
60976;BME280;46849;48.154;17.042;2022-11-20T13:12:06;98325.47;;;8.86;71.61
60976;BME280;46849;48.154;17.042;2022-11-20T13:15:33;98324.25;;;9.67;67.87
60976;BME280;46849;48.154;17.042;2022-11-20T13:18:24;98328.06;;;10.23;66.41
60976;BME280;46849;48.154;17.042;2022-11-20T13:21:20;98325.94;;;10.04;66.71
60976;BME280;46849;48.154;17.042;2022-11-20T13:24:23;98320.78;;;10.27;63.15
60976;BME280;46849;48.154;17.042;2022-11-20T13:30:03;98323.94;;;10.43;65.54
60976;BME280;46849;48.154;17.042;2022-11-20T13:33:49;98314.56;;;9.80;65.19
60976;BME280;46849;48.154;17.042;2022-11-20T13:36:26;98317.16;;;10.41;64.20
60976;BME280;46849;48.154;17.042;2022-11-20T13:39:11;98313.31;;;9.97;64.46
60976;BME280;46849;48.154;17.042;2022-11-20T13:42:23;98314.38;;;9.95;66.15
60976;BME280;46849;48.154;17.042;2022-11-20T13:45:29;98311.13;;;10.52;64.19
60976;BME280;46849;48.154;17.042;2022-11-20T13:48:21;98306.53;;;10.67;63.10
60976;BME280;46849;48.154;17.042;2022-11-20T14:05:55;98295.91;;;9.60;65.57
60976;BME280;46849;48.154;17.042;2022-11-20T14:08:47;98295.19;;;9.83;64.10
60976;BME280;46849;48.154;17.042;2022-11-20T14:11:31;98301.50;;;9.05;67.97
60976;BME280;46849;48.154;17.042;2022-11-20T14:17:08;98287.47;;;8.28;70.84
60976;BME280;46849;48.154;17.042;2022-11-20T14:19:58;98288.28;;;8.03;71.98
60976;BME280;46849;48.154;17.042;2022-11-20T14:22:52;98289.81;;;7.92;72.68
60976;BME280;46849;48.154;17.042;2022-11-20T14:25:42;98280.44;;;7.62;74.10
60976;BME280;46849;48.154;17.042;2022-11-20T14:28:28;98282.72;;;7.39;74.84
60976;BME280;46849;48.154;17.042;2022-11-20T14:31:21;98282.06;;;6.93;77.43
60976;BME280;46849;48.154;17.042;2022-11-20T14:34:14;98294.13;;;6.94;77.46
60976;BME280;46849;48.154;17.042;2022-11-20T14:37:02;98294.88;;;6.52;78.61
60976;BME280;46849;48.154;17.042;2022-11-20T14:39:54;98288.50;;;6.27;80.85
60976;BME280;46849;48.154;17.042;2022-11-20T14:42:43;98286.25;;;6.21;80.81
60976;BME280;46849;48.154;17.042;2022-11-20T14:45:28;98285.59;;;6.18;81.70
60976;BME280;46849;48.154;17.042;2022-11-20T14:48:14;98277.72;;;6.19;82.22
60976;BME280;46849;48.154;17.042;2022-11-20T14:51:00;98270.78;;;6.34;80.74
60976;BME280;46849;48.154;17.042;2022-11-20T14:53:45;98265.56;;;6.34;81.81
60976;BME280;46849;48.154;17.042;2022-11-20T14:56:29;98262.75;;;6.23;81.67
60976;BME280;46849;48.154;17.042;2022-11-20T14:59:26;98266.16;;;5.92;83.30
60976;BME280;46849;48.154;17.042;2022-11-20T15:02:12;98267.72;;;5.81;84.46
60976;BME280;46849;48.154;17.042;2022-11-20T15:04:59;98275.88;;;5.58;85.79
60976;BME280;46849;48.154;17.042;2022-11-20T15:07:46;98282.34;;;5.51;86.11
60976;BME280;46849;48.154;17.042;2022-11-20T15:10:34;98272.66;;;5.22;86.96
60976;BME280;46849;48.154;17.042;2022-11-20T15:13:33;98274.41;;;5.22;87.65
60976;BME280;46849;48.154;17.042;2022-11-20T15:16:20;98275.72;;;5.13;87.74
60976;BME280;46849;48.154;17.042;2022-11-20T15:19:13;98269.75;;;4.95;88.70
60976;BME280;46849;48.154;17.042;2022-11-20T15:22:01;98269.28;;;4.88;89.46
60976;BME280;46849;48.154;17.042;2022-11-20T15:24:45;98258.09;;;4.70;90.88
60976;BME280;46849;48.154;17.042;2022-11-20T15:27:30;98258.00;;;4.71;90.93
60976;BME280;46849;48.154;17.042;2022-11-20T15:30:17;98274.47;;;4.70;90.87
60976;BME280;46849;48.154;17.042;2022-11-20T15:33:03;98267.50;;;4.54;91.71
60976;BME280;46849;48.154;17.042;2022-11-20T15:35:48;98271.56;;;4.42;92.29
60976;BME280;46849;48.154;17.042;2022-11-20T15:38:34;98269.53;;;4.31;93.11
60976;BME280;46849;48.154;17.042;2022-11-20T15:41:18;98274.19;;;4.25;93.42
60976;BME280;46849;48.154;17.042;2022-11-20T15:44:04;98272.91;;;4.16;93.35
60976;BME280;46849;48.154;17.042;2022-11-20T15:46:50;98280.13;;;3.91;94.79
60976;BME280;46849;48.154;17.042;2022-11-20T15:49:35;98270.91;;;3.86;95.09
60976;BME280;46849;48.154;17.042;2022-11-20T15:52:19;98280.81;;;3.95;95.36
60976;BME280;46849;48.154;17.042;2022-11-20T15:55:09;98283.41;;;3.95;95.05